createdAt,value
2019-04-04T00:01:12.929Z,36.68
2019-04-04T00:03:41.435Z,36.57
2019-04-04T00:06:09.906Z,36.49
2019-04-04T00:08:38.412Z,36.41
2019-04-04T00:11:06.886Z,36.53
2019-04-04T00:13:36.823Z,36.48
2019-04-04T00:16:06.495Z,36.28
2019-04-04T00:18:36.087Z,36.99
2019-04-04T00:21:08.579Z,36.88
2019-04-04T00:23:39.307Z,36.95
2019-04-04T00:26:10.867Z,36.26
2019-04-04T00:28:40.123Z,36.66
2019-04-04T00:31:08.747Z,36.85
2019-04-04T00:33:37.376Z,37.00
2019-04-04T00:36:06.017Z,36.74
2019-04-04T00:38:36.046Z,36.86
2019-04-04T00:41:05.158Z,36.88
2019-04-04T00:43:33.764Z,36.48
2019-04-04T00:46:02.404Z,36.59
2019-04-04T00:48:32.156Z,36.68
2019-04-04T00:51:01.359Z,36.37
2019-04-04T00:53:30.002Z,36.35
2019-04-04T00:55:58.606Z,36.55
2019-04-04T00:58:27.240Z,36.09
2019-04-04T01:00:55.858Z,36.02
2019-04-04T01:03:24.479Z,36.32
2019-04-04T01:05:53.125Z,36.28
2019-04-04T01:08:21.764Z,37.04
2019-04-04T01:10:50.387Z,36.93
2019-04-04T01:13:19.007Z,37.14
2019-04-04T01:15:47.617Z,36.42
2019-04-04T01:18:16.320Z,36.77
2019-04-04T01:20:44.929Z,36.80
2019-04-04T01:23:13.502Z,36.93
2019-04-04T01:25:42.038Z,36.23
2019-04-04T01:28:10.679Z,36.27
2019-04-04T01:30:39.216Z,36.53
2019-04-04T01:33:07.768Z,36.40
2019-04-04T01:35:36.708Z,36.50
2019-04-04T01:38:05.416Z,36.50
2019-04-04T01:40:34.032Z,36.24
2019-04-04T01:43:02.642Z,36.00
2019-04-04T01:45:31.284Z,37.46
2019-04-04T01:47:59.842Z,36.34
2019-04-04T01:50:28.465Z,36.81
2019-04-04T01:52:59.281Z,36.57
2019-04-04T01:55:27.413Z,36.62
2019-04-04T01:57:56.016Z,35.67
2019-04-04T02:00:24.681Z,35.87
2019-04-04T02:02:53.226Z,36.14
2019-04-04T02:05:21.773Z,35.83
2019-04-04T02:07:50.324Z,35.68
2019-04-04T02:10:18.864Z,35.49
2019-04-04T02:12:47.370Z,36.49
2019-04-04T02:15:15.853Z,37.15
2019-04-04T02:17:44.326Z,37.01
2019-04-04T02:20:13.067Z,36.79
2019-04-04T02:22:41.759Z,36.82
2019-04-04T02:25:10.722Z,36.73
2019-04-04T02:27:39.198Z,36.74
2019-04-04T02:30:14.858Z,36.95
2019-04-04T02:32:38.884Z,36.54
2019-04-04T02:35:10.121Z,36.75
2019-04-04T02:37:37.839Z,36.04
2019-04-04T02:40:08.681Z,36.53
2019-04-04T02:42:38.262Z,36.79
2019-04-04T02:45:06.995Z,37.12
2019-04-04T02:47:35.497Z,37.10
2019-04-04T02:50:05.402Z,36.89
2019-04-04T02:52:33.909Z,37.26
2019-04-04T02:55:02.457Z,37.54
2019-04-04T02:57:30.964Z,37.36
2019-04-04T02:59:59.521Z,37.03
2019-04-04T03:02:27.996Z,37.47
2019-04-04T03:04:56.564Z,37.19
2019-04-04T03:07:29.852Z,37.47
2019-04-04T03:09:55.500Z,36.85
2019-04-04T03:12:26.287Z,37.42
2019-04-04T03:14:54.201Z,37.21
2019-04-04T03:17:22.746Z,37.99
2019-04-04T03:19:51.249Z,38.57
2019-04-04T03:22:19.737Z,38.60
2019-04-04T03:24:48.213Z,38.71
2019-04-04T03:27:16.677Z,38.22
2019-04-04T03:29:45.197Z,38.96
2019-04-04T03:32:15.971Z,38.99
2019-04-04T03:34:49.704Z,39.00
2019-04-04T03:37:14.075Z,38.81
2019-04-04T03:39:42.596Z,38.09
2019-04-04T03:42:11.092Z,38.63
2019-04-04T03:44:39.640Z,38.66
2019-04-04T03:47:10.429Z,38.44
2019-04-04T03:49:38.335Z,38.49
2019-04-04T03:52:10.011Z,38.04
2019-04-04T03:54:37.100Z,38.26
2019-04-04T03:57:05.602Z,38.95
2019-04-04T03:59:34.068Z,39.25
2019-04-04T04:02:02.600Z,39.54
2019-04-04T04:04:31.141Z,39.35
2019-04-04T04:06:59.628Z,39.45
2019-04-04T04:09:28.117Z,39.22
2019-04-04T04:11:56.585Z,39.64
2019-04-04T04:14:25.089Z,39.92
2019-04-04T04:16:53.572Z,39.71
2019-04-04T04:19:24.194Z,39.59
2019-04-04T04:21:52.249Z,39.86
2019-04-04T04:24:20.744Z,39.83
2019-04-04T04:26:49.243Z,40.37
2019-04-04T04:29:17.713Z,39.71
2019-04-04T04:31:49.326Z,40.26
2019-04-04T04:34:16.418Z,40.07
2019-04-04T04:36:47.658Z,40.36
2019-04-04T04:39:15.099Z,40.75
2019-04-04T04:41:43.611Z,40.42
2019-04-04T04:44:12.072Z,41.38
2019-04-04T04:46:40.559Z,40.27
2019-04-04T04:49:09.053Z,40.67
2019-04-04T04:51:37.522Z,40.75
2019-04-04T04:54:06.029Z,40.50
2019-04-04T04:56:34.501Z,40.06
2019-04-04T04:59:03.006Z,40.53
2019-04-04T05:01:31.570Z,40.07
2019-04-04T05:04:02.416Z,40.68
2019-04-04T05:06:30.252Z,40.91
2019-04-04T05:08:58.730Z,41.10
2019-04-04T05:11:27.216Z,40.44
2019-04-04T05:13:56.083Z,41.21
2019-04-04T05:16:25.898Z,41.02
2019-04-04T05:18:54.388Z,40.74
2019-04-04T05:21:25.085Z,40.45
2019-04-04T05:23:53.106Z,40.23
2019-04-04T05:26:21.582Z,39.99
2019-04-04T05:28:50.046Z,40.12
2019-04-04T05:31:18.817Z,39.71
2019-04-04T05:33:47.371Z,40.06
2019-04-04T05:36:15.870Z,40.34
2019-04-04T05:38:47.137Z,40.35
2019-04-04T05:41:16.451Z,39.92
2019-04-04T05:43:44.967Z,40.40
2019-04-04T05:46:13.459Z,40.32
2019-04-04T05:48:41.921Z,40.05
2019-04-04T05:51:10.441Z,40.36
2019-04-04T05:53:38.929Z,39.45
2019-04-04T05:56:07.509Z,39.73
2019-04-04T05:58:35.980Z,40.14
2019-04-04T06:01:07.627Z,40.09
2019-04-04T06:03:36.509Z,39.79
2019-04-04T06:06:05.048Z,39.75
2019-04-04T06:08:33.548Z,39.07
2019-04-04T06:11:04.795Z,39.23
2019-04-04T06:13:33.272Z,38.50
2019-04-04T06:16:02.061Z,39.19
2019-04-04T06:18:32.037Z,38.64
2019-04-04T06:21:00.518Z,38.82
2019-04-04T06:23:29.024Z,39.07
2019-04-04T06:25:57.588Z,38.51
2019-04-04T06:28:26.084Z,38.55
2019-04-04T06:30:54.560Z,38.61
2019-04-04T06:33:23.044Z,38.42
2019-04-04T06:35:51.634Z,38.20
2019-04-04T06:38:22.954Z,38.43
2019-04-04T06:40:50.311Z,38.20
2019-04-04T06:43:18.800Z,38.33
2019-04-04T06:45:47.541Z,37.89
2019-04-04T06:48:16.025Z,37.71
2019-04-04T06:50:44.527Z,37.96
2019-04-04T06:53:13.180Z,37.63
2019-04-04T06:55:41.663Z,37.01
2019-04-04T06:58:10.138Z,37.07
2019-04-04T07:00:38.647Z,36.48
2019-04-04T07:03:07.143Z,37.03
2019-04-04T07:05:37.930Z,36.44
2019-04-04T07:08:05.939Z,36.54
2019-04-04T07:10:34.413Z,36.65
2019-04-04T07:13:20.155Z,36.57
2019-04-04T07:15:33.099Z,35.98
2019-04-04T07:18:01.612Z,36.81
2019-04-04T07:20:30.080Z,36.41
2019-04-04T07:22:58.565Z,36.04
2019-04-04T07:25:27.032Z,35.46
2019-04-04T07:27:55.521Z,35.54
2019-04-04T07:30:24.071Z,34.88
2019-04-04T07:32:52.585Z,35.11
2019-04-04T07:35:21.260Z,35.23
2019-04-04T07:37:52.925Z,35.19
2019-04-04T07:40:20.426Z,35.59
2019-04-04T07:42:49.022Z,35.51
2019-04-04T07:45:17.544Z,34.88
2019-04-04T07:47:47.429Z,34.83
2019-04-04T07:50:16.364Z,34.44
2019-04-04T07:52:44.849Z,34.66
2019-04-04T07:55:14.881Z,34.84
2019-04-04T07:57:43.351Z,34.37
2019-04-04T08:00:12.503Z,34.28
2019-04-04T08:02:40.973Z,34.23
2019-04-04T08:05:12.924Z,33.14
2019-04-04T08:07:40.097Z,33.46
2019-04-04T08:10:19.850Z,32.91
2019-04-04T08:12:39.237Z,33.65
2019-04-04T08:15:07.984Z,34.25
2019-04-04T08:17:36.638Z,33.34
2019-04-04T08:20:06.780Z,32.88
2019-04-04T08:22:35.322Z,32.93
2019-04-04T08:25:05.045Z,32.61
2019-04-04T08:27:33.509Z,32.92
2019-04-04T08:30:02.041Z,33.07
2019-04-04T08:32:30.523Z,32.73
2019-04-04T08:34:59.060Z,32.19
2019-04-04T08:37:27.594Z,31.84
2019-04-04T08:39:56.064Z,31.18
2019-04-04T08:42:24.600Z,30.53
2019-04-04T08:44:53.050Z,29.33
2019-04-04T08:47:21.582Z,30.51
2019-04-04T08:49:50.169Z,30.29
2019-04-04T08:52:20.794Z,30.98
2019-04-04T08:54:48.917Z,29.83
2019-04-04T08:57:17.383Z,29.92
2019-04-04T08:59:45.950Z,28.50
2019-04-04T09:02:14.430Z,28.76
2019-04-04T09:04:42.935Z,29.08
2019-04-04T09:07:11.437Z,28.12
2019-04-04T09:09:40.013Z,28.80
2019-04-04T09:12:08.600Z,28.46
2019-04-04T09:14:37.086Z,27.91
2019-04-04T09:17:05.631Z,29.05
2019-04-04T09:19:34.137Z,27.85
2019-04-04T09:22:02.608Z,28.87
2019-04-04T09:24:31.105Z,28.22
2019-04-04T09:26:59.573Z,27.54
2019-04-04T09:29:28.060Z,27.09
2019-04-04T09:31:56.532Z,27.02
2019-04-04T09:34:25.015Z,27.63
2019-04-04T09:36:53.519Z,27.43
2019-04-04T09:39:21.991Z,26.60
2019-04-04T09:41:50.463Z,26.60
2019-04-04T09:44:18.933Z,26.81
2019-04-04T09:46:47.419Z,26.80
2019-04-04T09:49:15.901Z,27.18
2019-04-04T09:51:44.384Z,27.03
2019-04-04T09:54:12.862Z,26.41
2019-04-04T09:56:41.338Z,26.73
2019-04-04T09:59:09.838Z,26.29
2019-04-04T10:01:38.476Z,26.79
2019-04-04T10:04:06.987Z,27.16
2019-04-04T10:06:35.463Z,27.16
2019-04-04T10:09:15.688Z,27.06
2019-04-04T10:11:36.473Z,26.54
2019-04-04T10:14:05.131Z,26.73
2019-04-04T10:16:33.587Z,27.28
2019-04-04T10:19:04.095Z,28.11
2019-04-04T10:21:32.590Z,28.60
2019-04-04T10:24:01.095Z,28.06
2019-04-04T10:26:29.743Z,27.87
2019-04-04T10:28:58.211Z,27.87
2019-04-04T10:31:26.727Z,28.46
2019-04-04T10:33:55.263Z,26.43
2019-04-04T10:36:23.760Z,26.43
2019-04-04T10:38:52.238Z,27.01
2019-04-04T10:41:20.737Z,27.23
2019-04-04T10:43:49.213Z,27.67
2019-04-04T10:46:17.715Z,27.15
2019-04-04T10:48:46.212Z,25.27
2019-04-04T10:51:14.689Z,25.05
2019-04-04T10:53:43.159Z,24.72
2019-04-04T10:56:11.643Z,24.96
2019-04-04T10:58:40.146Z,25.93
2019-04-04T11:01:08.614Z,25.04
2019-04-04T11:03:37.125Z,24.87
2019-04-04T11:06:05.611Z,24.45
2019-04-04T11:08:34.077Z,25.35
2019-04-04T11:11:02.956Z,23.57
2019-04-04T11:13:33.891Z,22.25
2019-04-04T11:16:01.655Z,23.37
2019-04-04T11:18:30.142Z,23.19
2019-04-04T11:20:58.631Z,23.32
2019-04-04T11:23:27.108Z,24.41
2019-04-04T11:25:55.570Z,24.25
2019-04-04T11:28:24.826Z,24.91
2019-04-04T11:30:53.295Z,24.62
2019-04-04T11:33:21.810Z,23.94
2019-04-04T11:35:50.354Z,23.63
2019-04-04T11:38:18.860Z,24.10
2019-04-04T11:40:47.398Z,24.04
2019-04-04T11:43:15.939Z,24.46
2019-04-04T11:45:44.403Z,23.00
2019-04-04T11:48:12.870Z,22.55
2019-04-04T11:50:41.354Z,22.26
2019-04-04T11:53:09.862Z,22.21
2019-04-04T11:55:38.366Z,22.72
2019-04-04T11:58:06.843Z,21.71
2019-04-04T12:00:39.504Z,21.77
2019-04-04T12:03:07.991Z,22.05
2019-04-04T12:05:36.530Z,22.02
2019-04-04T12:08:05.208Z,21.97
2019-04-04T12:10:33.780Z,22.08
2019-04-04T12:13:03.132Z,21.87
2019-04-04T12:15:31.602Z,22.56
2019-04-04T12:18:00.097Z,23.36
2019-04-04T12:20:28.596Z,23.43
2019-04-04T12:22:57.075Z,22.33
2019-04-04T12:25:25.628Z,21.95
2019-04-04T12:27:54.122Z,22.91
2019-04-04T12:30:24.288Z,22.40
2019-04-04T12:32:52.760Z,22.00
2019-04-04T12:35:21.280Z,22.05
2019-04-04T12:37:49.747Z,22.04
2019-04-04T12:40:20.709Z,23.73
2019-04-04T12:42:48.605Z,23.73
2019-04-04T12:45:17.215Z,23.19
2019-04-04T12:47:45.889Z,23.49
2019-04-04T12:50:15.191Z,23.13
2019-04-04T12:52:43.673Z,22.83
2019-04-04T12:55:12.511Z,23.20
2019-04-04T12:57:40.980Z,22.41
2019-04-04T13:00:11.131Z,23.42
2019-04-04T13:02:39.765Z,22.50
2019-04-04T13:05:08.991Z,23.04
2019-04-04T13:07:37.569Z,22.42
2019-04-04T13:10:11.773Z,23.19
2019-04-04T13:12:40.360Z,22.24
2019-04-04T13:15:09.571Z,22.94
2019-04-04T13:17:38.144Z,22.17
2019-04-04T13:20:08.274Z,21.94
2019-04-04T13:22:36.952Z,23.15
2019-04-04T13:25:08.189Z,22.76
2019-04-04T13:27:36.869Z,22.27
2019-04-04T13:30:11.305Z,22.07
2019-04-04T13:32:39.949Z,22.11
2019-04-04T13:35:09.588Z,21.04
2019-04-04T13:37:38.083Z,21.34
2019-04-04T13:40:07.352Z,21.54
2019-04-04T13:42:35.806Z,21.57
2019-04-04T13:45:06.258Z,22.57
2019-04-04T13:47:38.230Z,21.74
2019-04-04T13:50:12.235Z,21.92
2019-04-04T13:52:39.956Z,21.35
2019-04-04T13:55:08.664Z,22.60
2019-04-04T13:57:39.272Z,23.33
2019-04-04T14:00:09.401Z,23.44
2019-04-04T14:02:37.952Z,23.60
2019-04-04T14:05:10.004Z,23.86
2019-04-04T14:07:38.692Z,23.86
2019-04-04T14:10:07.801Z,23.17
2019-04-04T14:12:36.289Z,23.66
2019-04-04T14:15:10.406Z,24.32
2019-04-04T14:17:38.881Z,23.75
2019-04-04T14:20:08.928Z,24.24
2019-04-04T14:22:37.459Z,24.05
2019-04-04T14:25:07.507Z,24.18
2019-04-04T14:27:37.408Z,24.72
2019-04-04T14:30:07.346Z,24.51
2019-04-04T14:32:35.838Z,24.98
2019-04-04T14:35:06.596Z,24.32
2019-04-04T14:37:35.075Z,24.32
2019-04-04T14:40:05.224Z,24.36
2019-04-04T14:42:33.703Z,24.89
2019-04-04T14:45:02.889Z,24.76
2019-04-04T14:47:33.097Z,24.38
2019-04-04T14:50:04.627Z,25.01
2019-04-04T14:52:32.093Z,25.04
2019-04-04T14:55:00.556Z,25.04
2019-04-04T14:57:29.067Z,24.90
2019-04-04T14:59:57.541Z,24.90
2019-04-04T15:02:26.104Z,25.33
2019-04-04T15:04:54.614Z,25.31
2019-04-04T15:07:23.209Z,25.31
2019-04-04T15:09:51.753Z,25.33
2019-04-04T15:12:20.214Z,25.33
2019-04-04T15:14:48.779Z,25.42
2019-04-04T15:17:17.290Z,25.08
2019-04-04T15:19:45.766Z,25.08
2019-04-04T15:22:14.248Z,25.44
2019-04-04T15:24:44.462Z,25.44
2019-04-04T15:27:14.097Z,25.69
2019-04-04T15:29:44.082Z,25.32
2019-04-04T15:32:12.522Z,25.49
2019-04-04T15:34:40.985Z,26.21
2019-04-04T15:37:09.497Z,26.21
2019-04-04T15:39:37.960Z,25.80
2019-04-04T15:42:06.529Z,25.80
2019-04-04T15:44:35.001Z,25.54
2019-04-04T15:47:03.609Z,26.16
2019-04-04T15:49:32.083Z,25.27
2019-04-04T15:52:00.560Z,25.31
2019-04-04T15:54:29.042Z,26.01
2019-04-04T15:56:57.529Z,26.31
2019-04-04T15:59:26.004Z,26.31
2019-04-04T16:01:54.584Z,26.69
2019-04-04T16:04:23.050Z,26.60
2019-04-04T16:06:51.719Z,27.35
2019-04-04T16:09:20.188Z,27.01
2019-04-04T16:11:49.999Z,27.07
2019-04-04T16:14:18.793Z,27.07
2019-04-04T16:16:47.296Z,27.00
2019-04-04T16:19:15.809Z,27.23
2019-04-04T16:21:44.280Z,27.04
2019-04-04T16:24:12.849Z,27.76
2019-04-04T16:26:41.335Z,27.50
2019-04-04T16:29:09.848Z,27.33
2019-04-04T16:31:38.336Z,27.33
2019-04-04T16:34:06.808Z,27.32
2019-04-04T16:36:35.325Z,27.23
2019-04-04T16:39:05.984Z,27.46
2019-04-04T16:41:34.471Z,27.50
2019-04-04T16:44:06.178Z,27.93
2019-04-04T16:46:34.686Z,27.78
2019-04-04T16:49:03.230Z,27.73
2019-04-04T16:51:31.731Z,27.78
2019-04-04T16:54:00.222Z,28.41
2019-04-04T16:56:28.731Z,28.47
2019-04-04T16:58:57.238Z,28.65
2019-04-04T17:01:25.719Z,28.81
2019-04-04T17:04:01.575Z,28.13
2019-04-04T17:06:24.966Z,28.20
2019-04-04T17:08:53.464Z,28.18
2019-04-04T17:11:21.945Z,28.58
2019-04-04T17:13:50.454Z,28.51
2019-04-04T17:16:21.233Z,28.30
2019-04-04T17:18:49.150Z,28.56
2019-04-04T17:21:17.627Z,28.29
2019-04-04T17:23:46.138Z,28.52
2019-04-04T17:26:14.623Z,29.15
2019-04-04T17:28:43.410Z,29.17
2019-04-04T17:31:12.525Z,29.15
2019-04-04T17:33:41.154Z,29.24
2019-04-04T17:36:09.732Z,29.43
2019-04-04T17:38:38.490Z,29.49
2019-04-04T17:41:08.120Z,29.81
2019-04-04T17:43:38.024Z,30.44
2019-04-04T17:46:06.954Z,30.81
2019-04-04T17:48:35.612Z,30.61
2019-04-04T17:51:06.495Z,30.68
2019-04-04T17:53:35.454Z,31.18
2019-04-04T17:56:07.526Z,31.43
2019-04-04T17:58:35.709Z,31.56
2019-04-04T18:01:05.654Z,32.33
2019-04-04T18:03:34.228Z,31.94
2019-04-04T18:06:02.707Z,31.77
2019-04-04T18:08:31.220Z,31.05
2019-04-04T18:11:00.028Z,31.15
2019-04-04T18:13:28.526Z,31.39
2019-04-04T18:15:57.019Z,31.55
2019-04-04T18:18:25.506Z,31.69
2019-04-04T18:20:53.996Z,33.61
2019-04-04T18:23:23.511Z,33.25
2019-04-04T18:25:52.092Z,33.31
2019-04-04T18:28:20.580Z,32.79
2019-04-04T18:30:49.073Z,32.96
2019-04-04T18:33:19.725Z,32.55
2019-04-04T18:35:47.800Z,32.61
2019-04-04T18:38:16.306Z,33.02
2019-04-04T18:40:44.779Z,32.81
2019-04-04T18:43:13.268Z,32.60
2019-04-04T18:45:41.825Z,34.18
2019-04-04T18:48:10.292Z,33.29
2019-04-04T18:50:38.780Z,33.12
2019-04-04T18:53:08.897Z,33.86
2019-04-04T18:55:38.225Z,33.61
2019-04-04T18:58:06.782Z,33.61
2019-04-04T19:00:35.355Z,33.79
2019-04-04T19:03:03.997Z,34.65
2019-04-04T19:05:32.632Z,34.06
2019-04-04T19:08:01.115Z,34.64
2019-04-04T19:10:29.666Z,35.00
2019-04-04T19:13:05.354Z,34.50
2019-04-04T19:15:28.447Z,33.87
2019-04-04T19:17:56.956Z,34.40
2019-04-04T19:20:25.492Z,35.19
2019-04-04T19:22:54.001Z,35.02
2019-04-04T19:25:22.611Z,33.96
2019-04-04T19:27:51.301Z,34.47
2019-04-04T19:30:20.013Z,34.48
2019-04-04T19:32:48.615Z,33.56
2019-04-04T19:35:17.658Z,34.04
2019-04-04T19:37:46.131Z,33.95
2019-04-04T19:40:15.571Z,34.16
2019-04-04T19:42:44.132Z,34.26
2019-04-04T19:45:13.586Z,33.29
2019-04-04T19:47:42.051Z,32.99
2019-04-04T19:50:11.498Z,32.90
2019-04-04T19:52:40.120Z,33.30
2019-04-04T19:55:08.867Z,33.04
2019-04-04T19:57:37.346Z,33.57
2019-04-04T20:00:09.064Z,32.73
2019-04-04T20:02:37.575Z,33.43
2019-04-04T20:05:07.385Z,34.38
2019-04-04T20:07:35.853Z,34.48
2019-04-04T20:10:07.104Z,35.45
2019-04-04T20:12:35.573Z,35.85
2019-04-04T20:15:05.857Z,35.59
2019-04-04T20:17:34.337Z,34.61
2019-04-04T20:20:04.377Z,34.46
2019-04-04T20:22:32.893Z,35.30
2019-04-04T20:25:01.369Z,34.84
2019-04-04T20:27:29.852Z,35.97
2019-04-04T20:29:58.398Z,35.36
2019-04-04T20:32:26.879Z,36.57
2019-04-04T20:34:55.403Z,36.40
2019-04-04T20:37:23.892Z,36.62
2019-04-04T20:39:52.367Z,35.87
2019-04-04T20:42:20.877Z,35.65
2019-04-04T20:44:49.367Z,35.71
2019-04-04T20:47:17.875Z,35.28
2019-04-04T20:49:46.352Z,35.04
2019-04-04T20:52:14.828Z,34.98
2019-04-04T20:54:43.314Z,35.32
2019-04-04T20:57:11.784Z,35.63
2019-04-04T20:59:40.270Z,36.50
2019-04-04T21:02:08.746Z,38.18
2019-04-04T21:04:37.287Z,39.00
2019-04-04T21:07:05.837Z,39.15
2019-04-04T21:09:34.306Z,38.46
2019-04-04T21:12:04.451Z,37.82
2019-04-04T21:14:32.924Z,38.42
2019-04-04T21:17:01.437Z,39.72
2019-04-04T21:19:29.926Z,38.72
2019-04-04T21:21:58.428Z,39.22
2019-04-04T21:24:26.900Z,40.26
2019-04-04T21:26:55.412Z,39.64
2019-04-04T21:29:25.390Z,39.62
2019-04-04T21:31:53.860Z,40.57
2019-04-04T21:34:22.369Z,40.92
2019-04-04T21:36:50.841Z,40.16
2019-04-04T21:39:19.351Z,40.05
2019-04-04T21:41:50.138Z,39.80
2019-04-04T21:44:18.643Z,39.11
2019-04-04T21:46:47.148Z,40.76
2019-04-04T21:49:15.617Z,40.38
2019-04-04T21:51:44.102Z,40.26
2019-04-04T21:54:12.573Z,40.18
2019-04-04T21:56:41.075Z,39.77
2019-04-04T21:59:09.562Z,39.66
2019-04-04T22:01:38.544Z,39.61
2019-04-04T22:04:07.086Z,40.63
2019-04-04T22:06:35.564Z,40.32
2019-04-04T22:09:07.629Z,39.56
2019-04-04T22:11:36.098Z,39.30
2019-04-04T22:14:04.602Z,39.28
2019-04-04T22:16:33.152Z,38.76
2019-04-04T22:19:01.657Z,39.48
2019-04-04T22:21:30.127Z,40.73
2019-04-04T22:23:58.624Z,40.48
2019-04-04T22:26:27.105Z,41.49
2019-04-04T22:28:55.601Z,41.18
2019-04-04T22:31:24.077Z,40.64
2019-04-04T22:33:53.478Z,39.65
2019-04-04T22:36:21.947Z,39.10
2019-04-04T22:38:50.490Z,40.58
2019-04-04T22:41:19.060Z,39.89
2019-04-04T22:43:47.539Z,40.52
2019-04-04T22:46:16.041Z,40.62
2019-04-04T22:48:44.518Z,41.05
2019-04-04T22:51:13.024Z,40.84
2019-04-04T22:53:41.532Z,40.42
2019-04-04T22:56:10.000Z,41.06
2019-04-04T22:58:38.572Z,41.04
2019-04-04T23:01:07.045Z,40.61
2019-04-04T23:03:35.547Z,40.41
2019-04-04T23:06:04.092Z,40.74
2019-04-04T23:08:32.595Z,40.38
2019-04-04T23:11:01.070Z,40.32
2019-04-04T23:13:29.611Z,40.37
2019-04-04T23:15:58.087Z,41.59
2019-04-04T23:18:26.562Z,40.57
2019-04-04T23:20:55.129Z,41.23
2019-04-04T23:23:23.599Z,40.44
2019-04-04T23:25:52.075Z,41.09
2019-04-04T23:28:20.550Z,40.44
2019-04-04T23:30:49.049Z,39.98
2019-04-04T23:33:17.522Z,40.27
2019-04-04T23:35:46.065Z,39.48
2019-04-04T23:38:14.595Z,39.77
2019-04-04T23:40:43.009Z,39.78
2019-04-04T23:43:11.518Z,39.13
2019-04-04T23:45:40.000Z,40.12
2019-04-04T23:48:08.512Z,39.78
2019-04-04T23:50:36.976Z,39.64
2019-04-04T23:53:05.462Z,39.68
2019-04-04T23:55:33.934Z,39.25
2019-04-04T23:58:02.444Z,41.43
